Time;durP1;ratioP1;P1;durP2;ratioP2;P2;SDS_P1;SDS_P2;PMS_P1;PMS_P2;Temp;Humidity;BMP_temperature;BMP_pressure;BME280_temperature;BME280_humidity;BME280_pressure;Samples;Min_cycle;Max_cycle;Signal;HPM_P1;HPM_P2
2023/04/15 00:00:36;;;;;;;9.20;6.78;;;;;;;;;;4935093;29;20047;-67
2023/04/15 00:03:04;;;;;;;11.43;7.57;;;;;;;;;;4935330;29;20052;-66
2023/04/15 00:05:31;;;;;;;15.07;9.00;;;;;;;;;;4934993;29;20056;-66
2023/04/15 00:07:57;;;;;;;20.83;11.43;;;;;;;;;;4933865;29;20417;-66
2023/04/15 00:10:24;;;;;;;23.77;11.90;;;;;;;;;;4935103;29;20079;-66
2023/04/15 00:12:51;;;;;;;23.75;12.38;;;;;;;;;;4935101;29;20126;-66
2023/04/15 00:15:17;;;;;;;26.10;12.75;;;;;;;;;;4934695;29;20507;-66
2023/04/15 00:17:44;;;;;;;20.70;9.68;;;;;;;;;;4935015;29;20056;-66
2023/04/15 00:20:11;;;;;;;15.35;8.10;;;;;;;;;;4934889;29;20083;-66
2023/04/15 00:22:37;;;;;;;19.13;9.30;;;;;;;;;;4934660;29;20083;-66
2023/04/15 00:25:04;;;;;;;14.45;7.40;;;;;;;;;;4934687;29;20051;-66
2023/04/15 00:27:30;;;;;;;14.68;6.88;;;;;;;;;;4934631;29;20408;-66
2023/04/15 00:29:57;;;;;;;9.85;4.43;;;;;;;;;;4934658;29;20527;-66
2023/04/15 00:32:23;;;;;;;7.10;3.67;;;;;;;;;;4934648;29;20492;-66
2023/04/15 00:34:49;;;;;;;9.23;4.03;;;;;;;;;;4934580;29;20083;-66
2023/04/15 00:37:16;;;;;;;8.43;3.80;;;;;;;;;;4934829;29;20498;-66
2023/04/15 00:39:42;;;;;;;6.88;3.50;;;;;;;;;;4934748;29;20054;-66
2023/04/15 00:42:09;;;;;;;4.97;2.85;;;;;;;;;;4934569;29;20052;-66
2023/04/15 00:44:36;;;;;;;6.00;2.78;;;;;;;;;;4933375;29;20059;-66
2023/04/15 00:47:03;;;;;;;7.60;3.83;;;;;;;;;;4934644;29;20415;-66
2023/04/15 00:49:29;;;;;;;9.43;4.40;;;;;;;;;;4934624;29;20130;-66
2023/04/15 00:51:56;;;;;;;11.32;5.05;;;;;;;;;;4934380;29;20056;-66
2023/04/15 00:54:22;;;;;;;17.90;8.10;;;;;;;;;;4934347;29;20057;-66
2023/04/15 00:56:48;;;;;;;16.92;7.45;;;;;;;;;;4937776;29;20054;-66
2023/04/15 00:59:16;;;;;;;15.68;7.55;;;;;;;;;;4938591;29;20130;-66
2023/04/15 01:01:43;;;;;;;16.33;7.55;;;;;;;;;;4938247;29;20584;-66
2023/04/15 01:04:10;;;;;;;20.65;9.60;;;;;;;;;;4938173;29;20488;-66
2023/04/15 01:06:37;;;;;;;9.40;4.85;;;;;;;;;;4938207;29;20055;-66
2023/04/15 01:09:04;;;;;;;9.88;4.68;;;;;;;;;;4938357;29;20051;-66
2023/04/15 01:11:32;;;;;;;30.27;12.70;;;;;;;;;;4938086;29;20411;-66
2023/04/15 01:13:58;;;;;;;23.83;11.77;;;;;;;;;;4938271;29;20502;-66
2023/04/15 01:16:26;;;;;;;28.67;12.45;;;;;;;;;;4938304;29;20467;-66
2023/04/15 01:18:53;;;;;;;15.48;6.90;;;;;;;;;;4938294;29;20416;-66
2023/04/15 01:21:19;;;;;;;19.35;9.63;;;;;;;;;;4938165;29;20048;-66
2023/04/15 01:23:47;;;;;;;16.98;8.70;;;;;;;;;;4938179;29;20058;-66
2023/04/15 01:26:13;;;;;;;15.00;6.38;;;;;;;;;;4938102;29;20059;-66
2023/04/15 01:28:40;;;;;;;12.75;5.20;;;;;;;;;;4937993;29;20055;-66
2023/04/15 01:31:13;;;;;;;7.95;4.28;;;;;;;;;;4937774;29;20060;-66
2023/04/15 01:33:41;;;;;;;7.30;4.07;;;;;;;;;;4937758;29;20062;-66
2023/04/15 01:36:08;;;;;;;10.73;4.20;;;;;;;;;;4937883;29;20052;-66
2023/04/15 01:38:36;;;;;;;11.55;5.10;;;;;;;;;;4931180;29;20441;-66
2023/04/15 01:41:06;;;;;;;8.95;5.10;;;;;;;;;;4931594;29;20047;-66
2023/04/15 01:43:35;;;;;;;8.18;4.60;;;;;;;;;;4937861;29;20048;-66
2023/04/15 01:46:01;;;;;;;;;;;;;;;;;;4937979;29;20055;-65
2023/04/15 01:48:27;;;;;;;8.82;4.28;;;;;;;;;;4937390;29;20017;-66
2023/04/15 01:50:56;;;;;;;6.43;3.80;;;;;;;;;;4936229;29;20058;-66
2023/04/15 01:53:23;;;;;;;5.25;2.15;;;;;;;;;;4937357;29;20059;-65
2023/04/15 01:55:50;;;;;;;5.88;3.00;;;;;;;;;;4937364;29;20048;-66
2023/04/15 01:58:17;;;;;;;3.30;2.67;;;;;;;;;;4937602;29;20055;-65
2023/04/15 02:00:44;;;;;;;3.87;2.20;;;;;;;;;;4937504;29;20043;-65
2023/04/15 02:03:10;;;;;;;5.20;2.47;;;;;;;;;;4937470;29;20071;-65
2023/04/15 02:05:37;;;;;;;4.55;2.72;;;;;;;;;;4937038;29;20059;-65
2023/04/15 02:08:03;;;;;;;8.32;4.40;;;;;;;;;;4935353;29;20059;-65
2023/04/15 02:10:30;;;;;;;8.70;5.18;;;;;;;;;;4937125;29;20059;-65
2023/04/15 02:12:56;;;;;;;7.68;4.82;;;;;;;;;;4937319;29;20405;-65
2023/04/15 02:15:23;;;;;;;10.15;4.50;;;;;;;;;;4936968;29;20107;-65
2023/04/15 02:17:51;;;;;;;8.90;3.38;;;;;;;;;;4937377;29;20048;-65
2023/04/15 02:20:18;;;;;;;4.70;2.88;;;;;;;;;;4937139;29;20231;-65
2023/04/15 02:22:44;;;;;;;4.85;2.08;;;;;;;;;;4937171;29;20411;-65
2023/04/15 02:25:11;;;;;;;3.78;2.03;;;;;;;;;;4936844;29;20411;-65
2023/04/15 02:27:37;;;;;;;2.70;1.83;;;;;;;;;;4936787;29;20052;-65
2023/04/15 02:30:04;;;;;;;2.80;2.13;;;;;;;;;;4937052;29;20055;-65
2023/04/15 02:32:30;;;;;;;3.03;1.85;;;;;;;;;;4936959;29;20047;-65
2023/04/15 02:35:00;;;;;;;2.42;2.13;;;;;;;;;;4923108;29;20058;-65
2023/04/15 02:37:29;;;;;;;5.07;1.95;;;;;;;;;;4936943;29;20076;-65
2023/04/15 02:39:56;;;;;;;3.42;1.90;;;;;;;;;;4936749;29;20130;-65
2023/04/15 02:42:22;;;;;;;2.72;1.58;;;;;;;;;;4936542;29;20058;-65
2023/04/15 02:44:48;;;;;;;3.45;1.80;;;;;;;;;;4936296;29;20522;-65
2023/04/15 02:47:15;;;;;;;2.58;1.70;;;;;;;;;;4936414;29;20054;-65
2023/04/15 02:49:41;;;;;;;4.03;1.63;;;;;;;;;;4936547;29;20412;-65
2023/04/15 02:52:08;;;;;;;2.00;1.60;;;;;;;;;;4936385;29;20420;-65
2023/04/15 02:54:35;;;;;;;3.15;2.00;;;;;;;;;;4936571;29;20048;-65
2023/04/15 02:57:01;;;;;;;2.35;1.77;;;;;;;;;;4936197;29;20571;-65
2023/04/15 02:59:28;;;;;;;3.88;2.22;;;;;;;;;;4936288;29;20502;-65
2023/04/15 03:01:59;;;;;;;2.10;1.90;;;;;;;;;;4936067;29;20052;-65
2023/04/15 03:04:28;;;;;;;3.78;2.38;;;;;;;;;;4935008;29;20052;-65
2023/04/15 03:06:55;;;;;;;3.95;2.50;;;;;;;;;;4936419;29;20083;-65
2023/04/15 03:09:22;;;;;;;4.78;3.38;;;;;;;;;;4936313;29;20051;-65
2023/04/15 03:11:49;;;;;;;5.18;2.78;;;;;;;;;;4935211;29;20439;-65
2023/04/15 03:14:15;;;;;;;3.33;2.45;;;;;;;;;;4935935;29;20488;-65
2023/04/15 03:16:42;;;;;;;5.07;2.80;;;;;;;;;;4935679;29;20413;-66
2023/04/15 03:19:08;;;;;;;3.55;2.45;;;;;;;;;;4935749;29;20062;-65
2023/04/15 03:21:34;;;;;;;3.65;3.20;;;;;;;;;;4935746;29;20047;-65
2023/04/15 03:24:01;;;;;;;3.80;2.72;;;;;;;;;;4936027;29;20048;-65
2023/04/15 03:26:28;;;;;;;4.68;2.60;;;;;;;;;;4935592;29;20134;-65
2023/04/15 03:28:55;;;;;;;4.63;2.30;;;;;;;;;;4935918;29;20055;-65
2023/04/15 03:31:21;;;;;;;5.07;2.50;;;;;;;;;;4935823;29;20090;-65
2023/04/15 03:33:48;;;;;;;4.13;2.25;;;;;;;;;;4935615;29;20051;-65
2023/04/15 03:36:14;;;;;;;6.50;3.00;;;;;;;;;;4935536;29;20044;-65
2023/04/15 03:38:41;;;;;;;4.47;2.83;;;;;;;;;;4935784;29;20130;-65
2023/04/15 03:41:08;;;;;;;5.63;2.95;;;;;;;;;;4935570;29;20137;-65
2023/04/15 03:43:34;;;;;;;2.97;2.45;;;;;;;;;;4935356;29;20071;-65
2023/04/15 03:46:01;;;;;;;3.88;2.55;;;;;;;;;;4935221;29;20620;-65
2023/04/15 03:48:27;;;;;;;2.58;2.20;;;;;;;;;;4935555;29;20059;-65
2023/04/15 03:50:54;;;;;;;5.70;2.95;;;;;;;;;;4935388;29;20047;-65
2023/04/15 03:53:20;;;;;;;4.22;2.90;;;;;;;;;;4935186;29;20135;-65
2023/04/15 03:55:47;;;;;;;3.92;2.58;;;;;;;;;;4935130;29;20488;-65
2023/04/15 03:58:13;;;;;;;4.80;2.13;;;;;;;;;;4935112;29;20411;-65
2023/04/15 04:00:40;;;;;;;2.25;2.03;;;;;;;;;;4935094;29;20504;-65
2023/04/15 04:03:06;;;;;;;2.50;2.30;;;;;;;;;;4935091;29;20103;-65
2023/04/15 04:05:36;;;;;;;3.77;2.20;;;;;;;;;;4934824;29;20091;-65
2023/04/15 04:08:02;;;;;;;3.60;2.20;;;;;;;;;;4935097;29;20130;-65
2023/04/15 04:10:28;;;;;;;3.55;2.00;;;;;;;;;;4935114;29;20059;-65
2023/04/15 04:12:55;;;;;;;4.78;2.60;;;;;;;;;;4935180;29;20059;-65
2023/04/15 04:15:21;;;;;;;5.35;2.92;;;;;;;;;;4935031;29;20052;-65
2023/04/15 04:17:47;;;;;;;4.15;2.60;;;;;;;;;;4934952;29;20047;-65
2023/04/15 04:20:14;;;;;;;5.32;2.75;;;;;;;;;;4935056;29;20054;-65
2023/04/15 04:22:40;;;;;;;4.68;3.17;;;;;;;;;;4934642;29;20480;-65
2023/04/15 04:25:07;;;;;;;3.83;2.88;;;;;;;;;;4934736;29;20144;-65
2023/04/15 04:27:34;;;;;;;4.28;2.45;;;;;;;;;;4934583;29;20054;-65
2023/04/15 04:30:00;;;;;;;3.05;2.45;;;;;;;;;;4934600;29;20051;-66
2023/04/15 04:32:27;;;;;;;2.83;1.90;;;;;;;;;;4934850;29;20119;-66
2023/04/15 04:34:53;;;;;;;2.95;2.15;;;;;;;;;;4934765;29;20048;-65
2023/04/15 04:37:20;;;;;;;3.88;2.03;;;;;;;;;;4934604;29;20055;-65
2023/04/15 04:39:46;;;;;;;3.38;2.00;;;;;;;;;;4934733;29;20055;-65
2023/04/15 04:42:12;;;;;;;4.47;3.15;;;;;;;;;;4934813;29;20047;-65
2023/04/15 04:44:39;;;;;;;3.63;2.80;;;;;;;;;;4934371;29;20131;-65
2023/04/15 04:47:06;;;;;;;4.05;3.58;;;;;;;;;;4934621;29;20061;-65
2023/04/15 04:49:32;;;;;;;4.57;2.40;;;;;;;;;;4934484;29;20143;-65
2023/04/15 04:51:59;;;;;;;3.17;2.88;;;;;;;;;;4934704;29;20047;-65
2023/04/15 04:54:26;;;;;;;3.50;2.88;;;;;;;;;;4934686;29;20055;-65
2023/04/15 04:56:52;;;;;;;2.97;2.63;;;;;;;;;;4934633;29;20054;-66
2023/04/15 04:59:19;;;;;;;4.90;3.00;;;;;;;;;;4934625;29;20274;-65
2023/04/15 05:01:45;;;;;;;3.75;3.10;;;;;;;;;;4934238;29;20046;-65
2023/04/15 05:04:12;;;;;;;3.80;2.70;;;;;;;;;;4934588;29;20449;-65
2023/04/15 05:06:38;;;;;;;5.60;3.17;;;;;;;;;;4934035;29;20423;-65
2023/04/15 05:09:05;;;;;;;5.20;3.00;;;;;;;;;;4934551;29;20062;-65
2023/04/15 05:11:32;;;;;;;4.75;3.25;;;;;;;;;;4934143;29;20055;-65
2023/04/15 05:14:01;;;;;;;5.43;3.30;;;;;;;;;;4934428;29;20051;-65
2023/04/15 05:16:27;;;;;;;4.78;2.92;;;;;;;;;;4934443;29;20048;-65
2023/04/15 05:18:54;;;;;;;3.08;2.78;;;;;;;;;;4934148;29;20040;-65
2023/04/15 05:21:20;;;;;;;6.55;2.80;;;;;;;;;;4934446;29;20138;-65
2023/04/15 05:23:46;;;;;;;3.97;2.90;;;;;;;;;;4933186;29;20058;-65
2023/04/15 05:26:13;;;;;;;4.80;2.80;;;;;;;;;;4934323;29;20520;-65
2023/04/15 05:28:39;;;;;;;4.20;3.15;;;;;;;;;;4934461;29;20134;-65
2023/04/15 05:31:06;;;;;;;4.03;3.00;;;;;;;;;;4934211;29;20418;-65
2023/04/15 05:33:32;;;;;;;4.78;3.40;;;;;;;;;;4934050;29;20056;-65
2023/04/15 05:35:59;;;;;;;4.82;3.90;;;;;;;;;;4934196;29;20077;-65
2023/04/15 05:38:25;;;;;;;6.60;4.20;;;;;;;;;;4934245;29;20134;-66
2023/04/15 05:40:52;;;;;;;6.55;3.97;;;;;;;;;;4934319;29;20052;-65
2023/04/15 05:43:18;;;;;;;8.65;4.68;;;;;;;;;;4936383;29;20858;-65
2023/04/15 05:45:45;;;;;;;7.15;4.43;;;;;;;;;;4937565;29;20064;-65
2023/04/15 05:48:12;;;;;;;5.63;3.97;;;;;;;;;;4937721;29;20056;-65
2023/04/15 05:50:41;;;;;;;6.00;4.18;;;;;;;;;;4936491;29;20055;-65
2023/04/15 05:53:08;;;;;;;5.55;3.55;;;;;;;;;;4937566;29;20043;-65
2023/04/15 05:55:34;;;;;;;5.35;3.33;;;;;;;;;;4937399;29;20059;-65
2023/04/15 05:58:01;;;;;;;7.57;3.63;;;;;;;;;;4937250;29;20052;-65
2023/04/15 06:00:27;;;;;;;4.35;3.05;;;;;;;;;;4937332;29;20134;-66
2023/04/15 06:02:55;;;;;;;8.57;4.03;;;;;;;;;;4937147;29;20111;-65
2023/04/15 06:05:21;;;;;;;5.70;2.72;;;;;;;;;;4937234;29;20135;-65
2023/04/15 06:07:49;;;;;;;4.10;3.05;;;;;;;;;;4937461;29;20051;-66
2023/04/15 06:10:15;;;;;;;4.70;3.60;;;;;;;;;;4937417;29;20058;-65
2023/04/15 06:12:41;;;;;;;5.90;3.33;;;;;;;;;;4937313;29;20058;-66
2023/04/15 06:15:09;;;;;;;7.85;4.28;;;;;;;;;;4937246;29;20059;-66
2023/04/15 06:17:36;;;;;;;6.05;4.18;;;;;;;;;;4937158;29;20484;-66
2023/04/15 06:20:03;;;;;;;8.70;4.32;;;;;;;;;;4937273;29;20050;-66
2023/04/15 06:22:29;;;;;;;6.80;3.53;;;;;;;;;;4936824;29;20496;-66
2023/04/15 06:24:56;;;;;;;5.50;3.58;;;;;;;;;;4937001;29;20102;-66
2023/04/15 06:27:22;;;;;;;8.32;4.43;;;;;;;;;;4936711;29;20139;-66
2023/04/15 06:29:48;;;;;;;7.05;3.75;;;;;;;;;;4936869;29;20048;-66
2023/04/15 06:32:15;;;;;;;7.50;4.07;;;;;;;;;;4936981;29;20093;-65
2023/04/15 06:34:41;;;;;;;6.82;3.70;;;;;;;;;;4936906;29;20048;-65
2023/04/15 06:37:09;;;;;;;5.13;3.10;;;;;;;;;;4936743;29;20052;-64
2023/04/15 06:39:37;;;;;;;5.10;2.92;;;;;;;;;;4936528;29;20575;-64
2023/04/15 06:42:03;;;;;;;6.00;3.10;;;;;;;;;;4936720;29;20159;-64
2023/04/15 06:44:30;;;;;;;8.15;3.47;;;;;;;;;;4936378;29;20143;-64
2023/04/15 06:46:59;;;;;;;5.65;3.40;;;;;;;;;;4936794;29;20130;-64
2023/04/15 06:49:25;;;;;;;5.57;3.80;;;;;;;;;;4936323;29;20052;-64
2023/04/15 06:51:51;;;;;;;6.57;3.78;;;;;;;;;;4936708;29;20798;-64
2023/04/15 06:54:18;;;;;;;4.30;2.85;;;;;;;;;;4936250;29;20114;-64
2023/04/15 06:56:45;;;;;;;4.65;3.08;;;;;;;;;;4936119;29;20098;-64
2023/04/15 06:59:11;;;;;;;4.25;2.97;;;;;;;;;;4936184;29;20130;-64
2023/04/15 07:01:38;;;;;;;5.28;2.90;;;;;;;;;;4936424;29;20047;-64
2023/04/15 07:04:05;;;;;;;4.07;3.67;;;;;;;;;;4936246;29;20055;-64
2023/04/15 07:06:31;;;;;;;3.77;3.40;;;;;;;;;;4936000;29;20074;-64
2023/04/15 07:08:58;;;;;;;6.40;3.50;;;;;;;;;;4935682;29;20082;-64
2023/04/15 07:11:25;;;;;;;6.18;3.28;;;;;;;;;;4910958;29;20465;-64
2023/04/15 07:13:51;;;;;;;6.80;3.85;;;;;;;;;;4932150;29;20067;-64
2023/04/15 07:16:18;;;;;;;5.57;4.15;;;;;;;;;;4934180;29;20048;-64
2023/04/15 07:18:44;;;;;;;4.22;2.80;;;;;;;;;;4917132;29;20055;-65
2023/04/15 07:21:11;;;;;;;3.83;2.40;;;;;;;;;;4923400;29;20107;-64
2023/04/15 07:23:37;;;;;;;3.10;2.15;;;;;;;;;;4933040;29;20052;-64
2023/04/15 07:26:04;;;;;;;4.13;2.20;;;;;;;;;;4935872;29;20526;-64
2023/04/15 07:28:30;;;;;;;2.65;2.13;;;;;;;;;;4935883;29;20083;-64
2023/04/15 07:30:57;;;;;;;5.07;2.50;;;;;;;;;;4935451;29;20059;-65
2023/04/15 07:33:23;;;;;;;3.78;2.20;;;;;;;;;;4935666;29;20400;-64
2023/04/15 07:35:50;;;;;;;4.30;1.90;;;;;;;;;;4935563;29;20051;-65
2023/04/15 07:38:16;;;;;;;3.03;1.83;;;;;;;;;;4935404;29;20048;-64
2023/04/15 07:40:43;;;;;;;3.08;2.30;;;;;;;;;;4935712;29;20137;-65
2023/04/15 07:43:09;;;;;;;3.55;1.92;;;;;;;;;;4935259;29;20080;-64
2023/04/15 07:45:36;;;;;;;6.20;1.83;;;;;;;;;;4935454;29;20126;-64
2023/04/15 07:48:02;;;;;;;3.60;1.95;;;;;;;;;;4935282;29;20526;-64
2023/04/15 07:50:29;;;;;;;5.68;1.85;;;;;;;;;;4934042;29;20066;-64
2023/04/15 07:52:56;;;;;;;2.65;1.40;;;;;;;;;;4919139;29;20052;-65
2023/04/15 07:55:22;;;;;;;2.17;1.67;;;;;;;;;;4916603;29;20083;-67
2023/04/15 07:57:49;;;;;;;4.05;2.10;;;;;;;;;;4932279;29;20867;-65
2023/04/15 08:00:15;;;;;;;4.63;2.45;;;;;;;;;;4935091;29;20130;-65
2023/04/15 08:02:42;;;;;;;3.25;2.40;;;;;;;;;;4920855;29;20130;-65
2023/04/15 08:05:09;;;;;;;3.78;2.80;;;;;;;;;;4934317;29;20062;-64
2023/04/15 08:07:36;;;;;;;7.45;3.22;;;;;;;;;;4935339;29;20055;-64
2023/04/15 08:10:03;;;;;;;5.55;2.97;;;;;;;;;;4934810;29;20499;-64
2023/04/15 08:12:30;;;;;;;4.18;2.55;;;;;;;;;;4934800;29;20055;-65
2023/04/15 08:14:56;;;;;;;6.93;2.75;;;;;;;;;;4934846;29;20044;-65
2023/04/15 08:17:23;;;;;;;5.03;2.72;;;;;;;;;;4934690;29;20050;-64
2023/04/15 08:19:49;;;;;;;7.95;5.15;;;;;;;;;;4934780;29;20051;-64
2023/04/15 08:22:16;;;;;;;8.07;3.92;;;;;;;;;;4934947;29;20047;-64
2023/04/15 08:24:44;;;;;;;6.32;3.30;;;;;;;;;;4933545;29;20051;-64
2023/04/15 08:27:11;;;;;;;4.95;3.45;;;;;;;;;;4934702;29;20091;-65
2023/04/15 08:29:37;;;;;;;6.50;3.58;;;;;;;;;;4934550;29;20472;-65
2023/04/15 08:32:06;;;;;;;7.03;3.67;;;;;;;;;;4934660;29;20518;-65
2023/04/15 08:34:33;;;;;;;3.72;3.00;;;;;;;;;;4934618;29;20071;-65
2023/04/15 08:37:00;;;;;;;5.15;3.60;;;;;;;;;;4934775;29;20152;-65
2023/04/15 08:39:27;;;;;;;5.20;2.80;;;;;;;;;;4934683;29;20066;-65
2023/04/15 08:41:56;;;;;;;3.58;2.92;;;;;;;;;;4934808;29;20403;-65
2023/04/15 08:44:23;;;;;;;5.20;3.28;;;;;;;;;;4934977;29;20060;-64
2023/04/15 08:46:50;;;;;;;5.00;3.17;;;;;;;;;;4934471;29;20561;-64
2023/04/15 08:49:18;;;;;;;6.38;3.28;;;;;;;;;;4934722;29;20061;-64
2023/04/15 08:51:44;;;;;;;3.42;2.47;;;;;;;;;;4934288;29;20059;-65
2023/04/15 08:54:11;;;;;;;5.27;3.33;;;;;;;;;;4934450;29;20070;-64
2023/04/15 08:56:38;;;;;;;3.35;2.60;;;;;;;;;;4934465;29;20048;-65
2023/04/15 08:59:05;;;;;;;4.10;2.50;;;;;;;;;;4931651;29;20118;-64
2023/04/15 09:01:31;;;;;;;3.65;2.70;;;;;;;;;;4933047;29;20153;-64
2023/04/15 09:03:58;;;;;;;2.35;2.10;;;;;;;;;;4932791;29;20075;-64
2023/04/15 09:06:25;;;;;;;4.60;2.53;;;;;;;;;;4932701;29;20051;-65
2023/04/15 09:08:51;;;;;;;2.85;2.05;;;;;;;;;;4934225;29;20484;-64
2023/04/15 09:11:18;;;;;;;4.13;2.17;;;;;;;;;;4933239;29;20055;-65
2023/04/15 09:13:45;;;;;;;2.58;1.88;;;;;;;;;;4934409;29;20043;-64
2023/04/15 09:16:12;;;;;;;2.63;2.13;;;;;;;;;;4935017;29;20479;-65
2023/04/15 09:18:39;;;;;;;3.05;2.00;;;;;;;;;;4938103;29;20059;-65
2023/04/15 09:21:07;;;;;;;3.23;2.23;;;;;;;;;;4938197;29;20051;-64
2023/04/15 09:23:34;;;;;;;5.00;3.17;;;;;;;;;;4938182;29;20054;-64
2023/04/15 09:26:01;;;;;;;5.05;2.25;;;;;;;;;;4938085;29;20062;-64
2023/04/15 09:28:28;;;;;;;3.03;2.13;;;;;;;;;;4937732;29;20499;-64
2023/04/15 09:30:55;;;;;;;3.08;2.47;;;;;;;;;;4937776;29;20055;-64
2023/04/15 09:33:22;;;;;;;3.85;1.70;;;;;;;;;;4937911;29;20063;-64
2023/04/15 09:36:01;;;;;;;2.35;1.55;;;;;;;;;;4937605;29;20131;-65
2023/04/15 09:38:27;;;;;;;2.50;1.65;;;;;;;;;;4937567;29;20488;-64
2023/04/15 09:40:54;;;;;;;2.65;1.70;;;;;;;;;;4937551;29;20487;-64
2023/04/15 09:43:21;;;;;;;3.08;1.85;;;;;;;;;;4937567;29;20079;-63
2023/04/15 09:45:49;;;;;;;2.92;1.52;;;;;;;;;;4936317;29;20056;-65
2023/04/15 09:48:20;;;;;;;2.35;1.80;;;;;;;;;;4928134;29;20411;-64
2023/04/15 09:50:50;;;;;;;2.72;1.80;;;;;;;;;;4929679;29;20051;-65
2023/04/15 09:53:20;;;;;;;5.80;3.10;;;;;;;;;;4937347;29;20083;-65
2023/04/15 09:55:53;;;;;;;4.25;2.83;;;;;;;;;;4937417;29;20052;-65
2023/04/15 09:58:21;;;;;;;4.25;2.22;;;;;;;;;;4937022;29;20052;-65
2023/04/15 10:00:49;;;;;;;3.70;2.33;;;;;;;;;;4937502;29;20051;-64
2023/04/15 10:03:18;;;;;;;2.47;1.20;;;;;;;;;;4937295;29;20134;-64
2023/04/15 10:05:46;;;;;;;3.17;1.20;;;;;;;;;;4937173;29;20056;-65
2023/04/15 10:08:14;;;;;;;3.38;1.30;;;;;;;;;;4937330;29;20260;-65
2023/04/15 10:10:41;;;;;;;2.70;1.60;;;;;;;;;;4937020;29;20051;-65
2023/04/15 10:13:08;;;;;;;1.92;0.93;;;;;;;;;;4936986;29;20052;-65
2023/04/15 10:15:35;;;;;;;3.60;1.00;;;;;;;;;;4937169;29;20051;-65
2023/04/15 10:18:02;;;;;;;2.25;1.10;;;;;;;;;;4935702;29;20381;-65
2023/04/15 10:20:29;;;;;;;3.83;1.30;;;;;;;;;;4937145;29;20123;-65
2023/04/15 10:22:56;;;;;;;3.90;1.70;;;;;;;;;;4937207;29;20389;-65
2023/04/15 10:25:23;;;;;;;4.78;1.70;;;;;;;;;;4937131;29;20047;-66
2023/04/15 10:27:51;;;;;;;4.20;2.08;;;;;;;;;;4935963;29;20075;-65
2023/04/15 10:30:18;;;;;;;1.63;1.17;;;;;;;;;;4937007;29;20103;-64
2023/04/15 10:32:44;;;;;;;3.65;1.20;;;;;;;;;;4936689;29;20476;-65
2023/04/15 10:35:11;;;;;;;3.40;1.10;;;;;;;;;;4936579;29;20051;-65
2023/04/15 10:37:38;;;;;;;3.25;1.30;;;;;;;;;;4936815;29;20054;-65
2023/04/15 10:40:27;;;;;;;3.28;1.20;;;;;;;;;;4936451;29;20415;-65
2023/04/15 10:42:55;;;;;;;7.72;1.60;;;;;;;;;;4936548;29;20613;-65
2023/04/15 10:45:24;;;;;;;3.83;1.52;;;;;;;;;;4936334;29;20044;-65
2023/04/15 10:47:51;;;;;;;5.28;1.65;;;;;;;;;;4936394;29;20062;-65
2023/04/15 10:50:17;;;;;;;3.42;1.23;;;;;;;;;;4936644;29;20408;-65
2023/04/15 10:52:44;;;;;;;3.53;1.48;;;;;;;;;;4936541;29;20405;-65
2023/04/15 10:55:13;;;;;;;3.60;1.70;;;;;;;;;;4936523;29;20062;-65
2023/04/15 10:57:40;;;;;;;2.65;1.50;;;;;;;;;;4936407;29;20302;-64
2023/04/15 11:00:16;;;;;;;2.45;1.52;;;;;;;;;;4924743;29;20135;-64
2023/04/15 11:02:43;;;;;;;3.17;1.20;;;;;;;;;;4935725;29;20058;-65
2023/04/15 11:05:10;;;;;;;3.63;1.30;;;;;;;;;;4935989;29;20052;-64
2023/04/15 11:07:37;;;;;;;2.70;1.60;;;;;;;;;;4936323;29;20098;-65
2023/04/15 11:10:24;;;;;;;2.40;1.30;;;;;;;;;;4936214;29;20058;-65
2023/04/15 11:12:50;;;;;;;;;;;;;;;;;;4922815;29;20058;-66
2023/04/15 11:15:36;;;;;;;3.47;1.90;;;;;;;;;;4935774;29;20378;-64
2023/04/15 11:18:21;;;;;;;3.43;2.07;;;;;;;;;;4935241;29;20086;-63
2023/04/15 11:20:49;;;;;;;2.90;2.25;;;;;;;;;;4933399;29;20131;-66
2023/04/15 11:23:19;;;;;;;5.75;5.20;;;;;;;;;;4936123;29;20079;-65
2023/04/15 11:25:45;;;;;;;46.13;41.35;;;;;;;;;;4930548;29;20059;-66
2023/04/15 11:28:12;;;;;;;7.73;6.97;;;;;;;;;;4927706;29;20060;-66
2023/04/15 11:30:39;;;;;;;16.77;15.27;;;;;;;;;;4935679;29;20063;-70
2023/04/15 11:33:07;;;;;;;3.05;2.72;;;;;;;;;;4935824;29;20059;-73
2023/04/15 11:35:34;;;;;;;2.75;1.98;;;;;;;;;;4935830;29;20419;-73
2023/04/15 11:38:04;;;;;;;3.47;3.15;;;;;;;;;;4935582;29;20044;-73
2023/04/15 11:40:32;;;;;;;3.92;2.38;;;;;;;;;;4934446;29;20071;-73
2023/04/15 11:43:20;;;;;;;2.33;1.70;;;;;;;;;;4934517;29;20123;-73
2023/04/15 11:45:51;;;;;;;3.38;1.60;;;;;;;;;;4934340;29;20051;-70
2023/04/15 11:48:18;;;;;;;2.17;1.70;;;;;;;;;;4935568;29;20060;-70
2023/04/15 11:50:45;;;;;;;2.33;2.13;;;;;;;;;;4935431;29;20055;-71
2023/04/15 11:53:12;;;;;;;3.05;1.77;;;;;;;;;;4935494;29;20151;-71
2023/04/15 11:55:43;;;;;;;1.85;1.75;;;;;;;;;;4935489;29;20055;-70
2023/04/15 11:58:11;;;;;;;3.90;1.83;;;;;;;;;;4935182;29;20051;-68
2023/04/15 12:00:44;;;;;;;2.90;1.92;;;;;;;;;;4935228;29;20055;-71
2023/04/15 12:03:16;;;;;;;2.47;1.65;;;;;;;;;;4935287;29;20052;-72
2023/04/15 12:06:02;;;;;;;2.20;2.00;;;;;;;;;;4934781;29;20055;-72
2023/04/15 12:08:47;;;;;;;1.80;1.40;;;;;;;;;;4935341;29;20385;-72
2023/04/15 12:11:14;;;;;;;;;;;;;;;;;;4935322;29;20523;-72
2023/04/15 12:13:47;;;;;;;1.67;1.15;;;;;;;;;;4934951;29;19927;-72
2023/04/15 12:16:18;;;;;;;1.95;1.23;;;;;;;;;;4933815;29;20060;-72
2023/04/15 12:18:46;;;;;;;1.33;1.17;;;;;;;;;;4934925;29;20411;-71
2023/04/15 12:21:12;;;;;;;1.95;1.58;;;;;;;;;;4934916;29;20056;-72
2023/04/15 12:23:46;;;;;;;3.17;1.65;;;;;;;;;;4934771;29;20044;-72
2023/04/15 12:26:12;;;;;;;1.35;1.08;;;;;;;;;;4934825;29;20504;-72
2023/04/15 12:28:39;;;;;;;;;;;;;;;;;;4935398;29;20134;-72
2023/04/15 12:31:06;;;;;;;1.20;0.70;;;;;;;;;;4934997;29;19929;-73
2023/04/15 12:33:32;;;;;;;1.13;0.93;;;;;;;;;;4934779;29;20058;-72
2023/04/15 12:35:59;;;;;;;1.80;1.00;;;;;;;;;;4927016;29;20150;-72
2023/04/15 12:38:25;;;;;;;1.85;1.10;;;;;;;;;;4919916;29;20051;-70
2023/04/15 12:40:53;;;;;;;1.50;1.10;;;;;;;;;;4926054;29;20055;-73
2023/04/15 12:43:19;;;;;;;2.78;1.00;;;;;;;;;;4933383;29;20054;-72
2023/04/15 12:45:45;;;;;;;1.42;1.10;;;;;;;;;;4926542;29;20124;-72
2023/04/15 12:48:12;;;;;;;;;;;;;;;;;;4933037;29;20055;-72
2023/04/15 12:50:38;;;;;;;1.00;1.00;;;;;;;;;;4930505;29;19950;-74
2023/04/15 12:53:04;;;;;;;1.83;0.90;;;;;;;;;;4924633;29;20059;-73
2023/04/15 12:55:31;;;;;;;1.65;0.88;;;;;;;;;;4934306;29;20518;-73
2023/04/15 12:57:57;;;;;;;1.33;0.90;;;;;;;;;;4933607;29;20056;-73
2023/04/15 13:00:23;;;;;;;2.53;1.30;;;;;;;;;;4934390;29;20264;-73
2023/04/15 13:02:50;;;;;;;1.40;1.10;;;;;;;;;;4934309;29;20484;-72
2023/04/15 13:05:16;;;;;;;;;;;;;;;;;;4934545;29;20499;-72
2023/04/15 13:07:42;;;;;;;2.92;1.25;;;;;;;;;;4934294;29;20290;-72
2023/04/15 13:10:09;;;;;;;2.17;1.20;;;;;;;;;;4934340;29;20059;-72
2023/04/15 13:12:36;;;;;;;1.30;1.20;;;;;;;;;;4934491;29;20067;-73
2023/04/15 13:15:03;;;;;;;;;;;;;;;;;;4934918;29;20052;-73
2023/04/15 13:17:30;;;;;;;1.23;1.00;;;;;;;;;;4932910;29;20013;-73
2023/04/15 13:19:57;;;;;;;;;;;;;;;;;;4934793;29;20051;-72
2023/04/15 13:22:23;;;;;;;1.20;0.70;;;;;;;;;;4934128;29;19927;-73
2023/04/15 13:24:50;;;;;;;;;;;;;;;;;;4934567;29;20047;-73
2023/04/15 13:27:17;;;;;;;0.70;0.70;;;;;;;;;;4933158;29;20049;-73
2023/04/15 13:29:43;;;;;;;1.38;0.77;;;;;;;;;;4934095;29;20492;-73
2023/04/15 13:32:09;;;;;;;1.92;1.10;;;;;;;;;;4934128;29;20522;-73
2023/04/15 13:34:36;;;;;;;1.85;1.10;;;;;;;;;;4934130;29;20051;-73
2023/04/15 13:37:06;;;;;;;1.58;1.02;;;;;;;;;;4934163;29;20051;-73
2023/04/15 13:39:33;;;;;;;1.92;1.00;;;;;;;;;;4933929;29;20135;-72
2023/04/15 13:41:59;;;;;;;1.35;1.20;;;;;;;;;;4934194;29;20050;-72
2023/04/15 13:44:26;;;;;;;1.45;1.35;;;;;;;;;;4934272;29;20056;-72
2023/04/15 13:46:52;;;;;;;2.15;1.50;;;;;;;;;;4934282;29;20044;-71
2023/04/15 13:49:18;;;;;;;1.65;1.45;;;;;;;;;;4934081;29;20090;-71
2023/04/15 13:51:45;;;;;;;1.83;1.73;;;;;;;;;;4933844;29;20055;-71
2023/04/15 13:54:11;;;;;;;2.22;1.90;;;;;;;;;;4934229;29;20055;-72
2023/04/15 13:56:38;;;;;;;2.00;1.60;;;;;;;;;;4934411;29;20055;-72
2023/04/15 13:59:05;;;;;;;1.65;1.00;;;;;;;;;;4934044;29;20178;-72
2023/04/15 14:01:31;;;;;;;1.38;1.02;;;;;;;;;;4933920;29;20048;-72
2023/04/15 14:03:58;;;;;;;;;;;;;;;;;;4936004;29;20504;-72
2023/04/15 14:06:26;;;;;;;1.15;0.90;;;;;;;;;;4937035;29;19926;-73
2023/04/15 14:08:52;;;;;;;2.05;0.60;;;;;;;;;;4937202;29;20090;-73
2023/04/15 14:11:18;;;;;;;1.48;0.73;;;;;;;;;;4937253;29;20047;-73
2023/04/15 14:13:45;;;;;;;0.95;0.88;;;;;;;;;;4937084;29;20145;-73
2023/04/15 14:16:11;;;;;;;1.55;0.98;;;;;;;;;;4937423;29;20054;-73
2023/04/15 14:18:38;;;;;;;1.42;0.90;;;;;;;;;;4935930;29;20130;-73
2023/04/15 14:21:06;;;;;;;1.13;1.00;;;;;;;;;;4936904;29;20563;-73
2023/04/15 14:23:32;;;;;;;1.10;1.00;;;;;;;;;;4936984;29;20063;-73
2023/04/15 14:25:58;;;;;;;;;;;;;;;;;;4937597;29;20407;-72
2023/04/15 14:28:25;;;;;;;1.83;1.00;;;;;;;;;;4936846;29;20302;-72
2023/04/15 14:30:51;;;;;;;1.13;1.02;;;;;;;;;;4937284;29;20055;-72
2023/04/15 14:33:17;;;;;;;;;;;;;;;;;;4937331;29;20051;-72
2023/04/15 14:35:44;;;;;;;1.42;1.20;;;;;;;;;;4937032;29;20014;-72
2023/04/15 14:38:10;;;;;;;;;;;;;;;;;;4937152;29;20052;-72
2023/04/15 14:40:37;;;;;;;0.60;0.60;;;;;;;;;;4936847;29;19926;-73
2023/04/15 14:43:03;;;;;;;;;;;;;;;;;;4936967;29;20142;-73
2023/04/15 14:45:29;;;;;;;1.65;0.77;;;;;;;;;;4936563;29;20286;-73